Terminal Aerodrome Forecast
Issued by NWS Quad Cities IA IL

Home | Current Version | Previous Version | Text Only | Print | Product List | Glossary On
Versions: 1 2 3 4 5 6 7 8 9 10 11 12 13 14 15 16 17 18 19 20 21
000
FTUS43 KDVN 291700
TAFMLI
TAF
KMLI 291720Z 2918/3018 17012KT P6SM SCT080
     FM292300 19007KT P6SM VCTS BKN080CB
      TEMPO 2923/3003 2SM TSRA BR BKN035CB
     FM300300 20007KT 3SM -TSRA BR OVC025CB
     FM300700 24004KT 4SM BR VCSH OVC015
     FM301400 28007KT 6SM BR BKN025=

USA.gov is the U.S. government's official web portal to all federal, state and local government web resources and services.